createdAt,value
2022-08-04T00:03:45.698Z,20.41
2022-08-04T00:08:57.302Z,20.27
2022-08-04T00:14:16.878Z,20.04
2022-08-04T00:19:30.074Z,20.62
2022-08-04T00:24:34.835Z,20.65
2022-08-04T00:29:40.197Z,20.29
2022-08-04T00:34:43.444Z,20.66
2022-08-04T00:39:48.014Z,20.09
2022-08-04T00:45:13.541Z,20.58
2022-08-04T00:50:23.574Z,20.09
2022-08-04T00:56:03.744Z,20.19
2022-08-04T01:01:15.052Z,20.08
2022-08-04T01:06:51.744Z,20.05
2022-08-04T01:12:25.581Z,20.39
2022-08-04T01:17:41.625Z,20.38
2022-08-04T01:23:18.285Z,20.25
2022-08-04T01:28:55.473Z,20.53
2022-08-04T01:34:04.072Z,20.41
2022-08-04T01:39:26.595Z,20.41
2022-08-04T01:44:32.522Z,19.85
2022-08-04T01:49:40.539Z,18.86
2022-08-04T01:54:44.825Z,18.97
2022-08-04T01:59:48.567Z,20.27
2022-08-04T02:04:51.744Z,19.26
2022-08-04T02:10:22.725Z,20.13
2022-08-04T02:15:37.434Z,20.17
2022-08-04T02:20:49.222Z,18.84
2022-08-04T02:26:22.049Z,18.92
2022-08-04T02:31:34.099Z,19.55
2022-08-04T02:36:40.630Z,19.84
2022-08-04T02:41:45.121Z,19.74
2022-08-04T02:46:49.498Z,19.41
2022-08-04T02:51:55.306Z,19.88
2022-08-04T02:56:59.062Z,19.27
2022-08-04T03:02:02.432Z,19.94
2022-08-04T03:07:41.151Z,19.76
2022-08-04T03:13:28.474Z,19.20
2022-08-04T03:19:18.735Z,19.87
2022-08-04T03:24:34.165Z,19.95
2022-08-04T03:30:05.406Z,19.94
2022-08-04T03:35:27.620Z,19.97
2022-08-04T03:40:53.818Z,19.59
2022-08-04T03:45:59.694Z,20.08
2022-08-04T03:51:36.439Z,20.02
2022-08-04T03:57:08.971Z,19.93
2022-08-04T04:02:49.786Z,20.06
2022-08-04T04:08:01.374Z,20.05
2022-08-04T04:13:19.032Z,19.72
2022-08-04T04:18:45.623Z,20.31
2022-08-04T04:24:07.803Z,20.21
2022-08-04T04:29:44.960Z,20.41
2022-08-04T04:35:08.759Z,20.25
2022-08-04T04:40:41.895Z,19.96
2022-08-04T04:46:15.975Z,20.52
2022-08-04T04:51:32.376Z,20.06
2022-08-04T04:56:49.615Z,19.91
2022-08-04T05:02:37.997Z,20.48
2022-08-04T05:08:45.228Z,20.74
2022-08-04T05:14:35.657Z,20.51
2022-08-04T05:19:29.143Z,22.13
2022-08-04T05:24:38.319Z,23.05
2022-08-04T05:29:57.373Z,23.30
2022-08-04T05:35:06.531Z,23.92
2022-08-04T05:40:13.610Z,24.07
2022-08-04T05:45:17.898Z,23.55
2022-08-04T05:50:22.379Z,23.76
2022-08-04T05:55:48.865Z,24.03
2022-08-04T06:00:53.217Z,23.78
2022-08-04T06:05:58.185Z,23.50
2022-08-04T06:11:08.856Z,23.60
2022-08-04T06:16:29.261Z,25.29
2022-08-04T06:21:35.757Z,25.76
2022-08-04T06:26:41.010Z,25.66
2022-08-04T06:32:31.525Z,25.99
2022-08-04T06:37:42.208Z,26.62
2022-08-04T06:42:50.155Z,26.76
2022-08-04T06:47:55.556Z,26.62
2022-08-04T06:52:58.735Z,26.41
2022-08-04T06:58:03.764Z,27.46
2022-08-04T07:03:11.143Z,27.49
2022-08-04T07:08:14.891Z,28.15
2022-08-04T07:13:19.654Z,27.32
2022-08-04T07:18:22.780Z,27.51
2022-08-04T07:23:26.951Z,28.74
2022-08-04T07:28:39.714Z,29.01
2022-08-04T07:33:45.681Z,28.28
2022-08-04T07:39:08.914Z,28.73
2022-08-04T07:44:26.151Z,29.95
2022-08-04T07:49:57.242Z,29.83
2022-08-04T07:54:54.619Z,30.60
2022-08-04T07:59:57.931Z,30.69
2022-08-04T08:05:02.421Z,30.23
2022-08-04T08:10:05.719Z,30.95
2022-08-04T08:34:09.484Z,31.63
2022-08-04T11:21:34.506Z,32.11
2022-08-04T12:14:29.264Z,34.92
2022-08-04T12:29:19.602Z,33.65
2022-08-04T12:34:38.367Z,34.19
2022-08-04T12:40:28.230Z,33.97
2022-08-04T12:45:12.197Z,33.69
2022-08-04T12:50:16.825Z,33.92
2022-08-04T13:09:47.179Z,34.42
2022-08-04T13:14:53.839Z,34.39
2022-08-04T13:19:57.790Z,34.11
2022-08-04T13:26:40.555Z,34.12
2022-08-04T13:30:26.618Z,34.30
2022-08-04T13:35:55.912Z,33.36
2022-08-04T13:40:59.017Z,33.20
2022-08-04T13:46:05.475Z,33.88
2022-08-04T13:51:11.526Z,33.36
2022-08-04T13:56:17.343Z,33.53
2022-08-04T14:01:35.529Z,33.62
2022-08-04T14:06:51.793Z,33.69
2022-08-04T14:12:12.583Z,33.90
2022-08-04T14:17:30.340Z,32.63
2022-08-04T14:22:36.855Z,32.56
2022-08-04T14:27:52.853Z,34.12
2022-08-04T14:33:59.594Z,33.94
2022-08-04T14:39:02.843Z,33.77
2022-08-04T14:44:06.002Z,33.10
2022-08-04T14:49:14.124Z,33.17
2022-08-04T14:54:18.983Z,33.08
2022-08-04T14:59:23.093Z,32.18
2022-08-04T15:04:27.753Z,32.45
2022-08-04T15:09:31.635Z,31.77
2022-08-04T15:14:38.405Z,32.09
2022-08-04T15:19:56.087Z,32.15
2022-08-04T15:24:59.801Z,31.36
2022-08-04T15:30:06.553Z,31.70
2022-08-04T15:35:23.368Z,31.09
2022-08-04T15:40:55.961Z,32.61
2022-08-04T15:46:41.580Z,32.24
2022-08-04T15:51:28.457Z,31.63
2022-08-04T15:56:35.899Z,32.03
2022-08-04T16:06:45.879Z,32.60
2022-08-04T16:11:51.578Z,31.94
2022-08-04T16:16:54.887Z,31.39
2022-08-04T16:22:05.694Z,31.57
2022-08-04T16:27:13.901Z,32.04
2022-08-04T16:32:26.920Z,32.20
2022-08-04T16:37:33.451Z,32.22
2022-08-04T16:42:37.160Z,31.54
2022-08-04T16:48:02.284Z,32.84
2022-08-04T16:58:19.117Z,33.51
2022-08-04T17:03:23.682Z,33.15
2022-08-04T17:08:30.414Z,33.60
2022-08-04T17:14:02.758Z,33.41
2022-08-04T18:21:06.269Z,30.31
2022-08-04T18:31:16.608Z,27.40
2022-08-04T18:36:37.074Z,27.73
2022-08-04T18:42:02.057Z,27.10
2022-08-04T18:52:30.237Z,26.24
2022-08-04T18:57:59.070Z,24.94
2022-08-04T19:02:57.383Z,24.53
2022-08-04T19:08:02.124Z,25.36
2022-08-04T19:13:24.863Z,24.85
2022-08-04T19:18:30.907Z,23.77
2022-08-04T19:24:29.421Z,23.53
2022-08-04T19:28:59.392Z,23.64
2022-08-04T19:34:04.876Z,24.88
2022-08-04T19:39:11.588Z,24.66
2022-08-04T19:44:15.187Z,24.43
2022-08-04T19:50:03.814Z,22.93
2022-08-04T19:54:43.717Z,23.39
2022-08-04T19:59:55.040Z,24.02
2022-08-04T20:04:58.568Z,23.68
2022-08-04T20:10:04.558Z,23.64
2022-08-04T20:15:11.085Z,23.86
2022-08-04T20:20:18.849Z,22.55
2022-08-04T20:25:36.947Z,22.97
2022-08-04T20:30:41.148Z,23.24
2022-08-04T20:41:07.373Z,22.41
2022-08-04T20:46:18.517Z,22.75
2022-08-04T20:51:33.672Z,23.01
2022-08-04T20:56:50.571Z,21.88
2022-08-04T21:01:54.590Z,21.77
2022-08-04T21:07:03.728Z,23.17
2022-08-04T21:12:09.490Z,22.68
2022-08-04T21:17:16.935Z,22.33
2022-08-04T21:22:29.862Z,22.20
2022-08-04T21:27:39.349Z,21.16
2022-08-04T21:32:42.946Z,21.94
2022-08-04T21:37:57.827Z,21.40
2022-08-04T21:43:04.299Z,22.15
2022-08-04T21:48:07.561Z,20.65
2022-08-04T21:53:12.500Z,22.33
2022-08-04T21:58:15.548Z,21.63
2022-08-04T22:03:51.514Z,20.54
2022-08-04T22:08:49.191Z,19.73
2022-08-04T22:14:11.565Z,20.74
2022-08-04T22:19:15.381Z,21.34
2022-08-04T22:24:27.368Z,20.87
2022-08-04T22:29:33.297Z,21.76
2022-08-04T22:34:45.649Z,20.13
2022-08-04T22:39:57.185Z,20.42
2022-08-04T22:45:00.980Z,20.57
2022-08-04T22:50:27.521Z,20.79
2022-08-04T22:56:07.611Z,20.99
2022-08-04T23:00:54.014Z,20.92
2022-08-04T23:06:10.957Z,20.11
2022-08-04T23:11:17.593Z,19.86
2022-08-04T23:16:20.711Z,20.58
2022-08-04T23:21:28.034Z,19.88
2022-08-04T23:26:47.674Z,20.07
2022-08-04T23:31:59.632Z,19.72
2022-08-04T23:37:03.671Z,20.24
2022-08-04T23:42:07.216Z,20.12
2022-08-04T23:48:15.123Z,19.73
2022-08-04T23:52:35.635Z,20.13
2022-08-04T23:58:06.531Z,20.00
